Preview of NWS' New Version of Forecast
This preview is not operational and should not be used for support decisions.

Terminal Aerodrome Forecast (TAF)

Issued by National Weather Service (NWS)

                            
000
FTUS43 KDMX 131120
TAFALO
TAF
KALO 131120Z 1312/1412 25011G17KT P6SM BKN022
     FM131700 27016G24KT P6SM BKN040
     FM132200 28014KT P6SM BKN060
     FM140200 25007KT P6SM FEW140=